Time;durP1;ratioP1;P1;durP2;ratioP2;P2;SDS_P1;SDS_P2;PMS_P1;PMS_P2;Temp;Humidity;BMP_temperature;BMP_pressure;BME280_temperature;BME280_humidity;BME280_pressure;Samples;Min_cycle;Max_cycle;Signal;HPM_P1;HPM_P2
2022/04/01 00:00:19;;;;;;;4.33;2.10;;;;;;;;;;5027891;28;20425;-59
2022/04/01 00:02:47;;;;;;;5.93;2.37;;;;;;;;;;5027272;28;20852;-60
2022/04/01 00:05:14;;;;;;;4.40;2.37;;;;;;;;;;5028021;28;20509;-59
2022/04/01 00:07:41;;;;;;;5.10;2.20;;;;;;;;;;5026798;28;20841;-59
2022/04/01 00:10:08;;;;;;;5.13;2.30;;;;;;;;;;5028041;28;20437;-59
2022/04/01 00:12:38;;;;;;;4.27;2.50;;;;;;;;;;5031995;28;20441;-59
2022/04/01 00:15:06;;;;;;;5.23;2.20;;;;;;;;;;5030510;28;20442;-59
2022/04/01 00:17:50;;;;;;;5.33;2.63;;;;;;;;;;5031536;28;20410;-60
2022/04/01 00:20:20;;;;;;;5.20;2.77;;;;;;;;;;5030293;28;20434;-60
2022/04/01 00:23:04;;;;;;;4.87;2.60;;;;;;;;;;5031094;28;20476;-59
2022/04/01 00:25:30;;;;;;;5.20;2.80;;;;;;;;;;5031785;28;20422;-59
2022/04/01 00:28:15;;;;;;;5.13;2.57;;;;;;;;;;5031903;28;20458;-58
2022/04/01 00:30:42;;;;;;;6.37;2.30;;;;;;;;;;5031052;28;20947;-58
2022/04/01 00:33:26;;;;;;;5.20;2.73;;;;;;;;;;5029911;28;20432;-58
2022/04/01 00:35:53;;;;;;;7.30;2.63;;;;;;;;;;5031384;28;20460;-58
2022/04/01 00:38:37;;;;;;;5.27;2.40;;;;;;;;;;5030369;28;20445;-58
2022/04/01 00:41:04;;;;;;;5.70;2.57;;;;;;;;;;5049408;28;20433;-59
2022/04/01 00:43:32;;;;;;;6.77;2.60;;;;;;;;;;5051409;28;20484;-58
2022/04/01 00:45:59;;;;;;;4.17;2.20;;;;;;;;;;5049815;28;20440;-58
2022/04/01 00:48:26;;;;;;;5.87;2.80;;;;;;;;;;5049652;28;20450;-58
2022/04/01 00:51:11;;;;;;;4.53;2.20;;;;;;;;;;5050958;28;20413;-58
2022/04/01 00:53:38;;;;;;;6.20;2.77;;;;;;;;;;5051070;28;20524;-58
2022/04/01 00:56:23;;;;;;;5.70;2.60;;;;;;;;;;5050593;28;20426;-58
2022/04/01 00:58:50;;;;;;;7.77;2.60;;;;;;;;;;5049829;28;20444;-58
2022/04/01 01:01:35;;;;;;;5.90;2.30;;;;;;;;;;5049740;28;20516;-59
2022/04/01 01:39:59;;;;;;;3.80;2.10;;;;;;;;;;5040156;28;20516;-58
2022/04/01 01:42:26;;;;;;;3.87;2.23;;;;;;;;;;5028694;28;20513;-58
2022/04/01 01:44:52;;;;;;;6.37;2.03;;;;;;;;;;5028742;28;20537;-58
2022/04/01 01:47:19;;;;;;;4.20;1.97;;;;;;;;;;5029877;28;20469;-59
2022/04/01 01:55:16;;;;;;;3.83;2.40;;;;;;;;;;5030222;28;20932;-58
2022/04/01 01:57:43;;;;;;;9.17;2.13;;;;;;;;;;5029484;28;20476;-59
2022/04/01 02:00:11;;;;;;;5.87;2.40;;;;;;;;;;5028621;28;20451;-59
2022/04/01 02:02:40;;;;;;;3.27;2.10;;;;;;;;;;5028098;28;20481;-58
2022/04/01 02:05:07;;;;;;;5.93;2.20;;;;;;;;;;5028405;28;21191;-59
2022/04/01 02:07:34;;;;;;;4.70;1.80;;;;;;;;;;5029026;28;20453;-59
2022/04/01 02:10:18;;;;;;;4.40;2.17;;;;;;;;;;5028975;28;20771;-58
2022/04/01 02:12:44;;;;;;;3.87;2.10;;;;;;;;;;5029239;28;20429;-58
2022/04/01 02:15:11;;;;;;;4.37;2.00;;;;;;;;;;5028508;28;20442;-58
2022/04/01 02:17:39;;;;;;;3.43;1.93;;;;;;;;;;5029221;28;20433;-59
2022/04/01 02:20:09;;;;;;;5.50;2.00;;;;;;;;;;5027848;28;20446;-59
2022/04/01 02:22:53;;;;;;;3.40;2.23;;;;;;;;;;5029308;28;20992;-58
2022/04/01 02:25:20;;;;;;;4.67;1.97;;;;;;;;;;5027995;28;21223;-58
2022/04/01 02:27:47;;;;;;;3.80;1.60;;;;;;;;;;5027066;28;20446;-59
2022/04/01 02:30:13;;;;;;;2.27;1.67;;;;;;;;;;5050075;28;20483;-58
2022/04/01 02:32:47;;;;;;;3.97;2.07;;;;;;;;;;5032517;28;20426;-58
2022/04/01 02:35:29;;;;;;;6.30;1.70;;;;;;;;;;5027876;28;20876;-58
2022/04/01 02:37:56;;;;;;;2.93;1.67;;;;;;;;;;5027803;28;20446;-59
2022/04/01 02:40:23;;;;;;;4.77;1.90;;;;;;;;;;5038824;28;20956;-58
2022/04/01 02:42:53;;;;;;;3.77;1.77;;;;;;;;;;5027495;28;20520;-58
2022/04/01 02:45:22;;;;;;;4.43;1.77;;;;;;;;;;5027419;28;20532;-58
2022/04/01 02:48:06;;;;;;;2.73;1.90;;;;;;;;;;5027265;28;20422;-59
2022/04/01 02:50:53;;;;;;;3.23;1.80;;;;;;;;;;5028511;28;20875;-59
2022/04/01 02:53:38;;;;;;;2.27;1.40;;;;;;;;;;5027455;28;20470;-59
2022/04/01 02:56:05;;;;;;;3.63;1.77;;;;;;;;;;5027252;28;20529;-59
2022/04/01 02:58:49;;;;;;;5.10;1.83;;;;;;;;;;5027437;28;20453;-58
2022/04/01 03:01:18;;;;;;;2.50;1.53;;;;;;;;;;5027270;28;20468;-58
2022/04/01 03:03:46;;;;;;;4.30;1.70;;;;;;;;;;5026562;28;21020;-59
2022/04/01 03:06:19;;;;;;;4.30;1.90;;;;;;;;;;5027448;28;20453;-58
2022/04/01 03:09:04;;;;;;;3.43;1.50;;;;;;;;;;5026748;28;20592;-59
2022/04/01 03:11:31;;;;;;;2.03;1.37;;;;;;;;;;5027253;28;20461;-59
2022/04/01 03:13:58;;;;;;;3.83;1.70;;;;;;;;;;5027174;28;20496;-59
2022/04/01 03:16:25;;;;;;;3.90;1.30;;;;;;;;;;5028422;28;20415;-58
2022/04/01 03:18:57;;;;;;;3.57;1.33;;;;;;;;;;5026700;28;20533;-60
2022/04/01 03:21:41;;;;;;;2.00;1.20;;;;;;;;;;5027694;28;20430;-59
2022/04/01 03:24:10;;;;;;;1.50;1.00;;;;;;;;;;5026627;28;20985;-59
2022/04/01 03:26:38;;;;;;;3.43;1.23;;;;;;;;;;5011085;28;20989;-58
2022/04/01 03:29:06;;;;;;;2.33;1.20;;;;;;;;;;5026606;28;20445;-59
2022/04/01 03:31:34;;;;;;;4.47;1.50;;;;;;;;;;5027347;28;20446;-59
2022/04/01 03:34:18;;;;;;;3.17;1.10;;;;;;;;;;5027301;28;20779;-59
2022/04/01 03:36:45;;;;;;;3.00;1.20;;;;;;;;;;5010929;28;20819;-59
2022/04/01 03:39:29;;;;;;;2.17;1.10;;;;;;;;;;5032616;28;20417;-59
2022/04/01 03:41:58;;;;;;;3.03;1.40;;;;;;;;;;5030645;28;20492;-59
2022/04/01 03:44:25;;;;;;;3.17;1.50;;;;;;;;;;5046507;28;20481;-59
2022/04/01 03:47:17;;;;;;;2.33;1.07;;;;;;;;;;5051667;28;20456;-59
2022/04/01 03:49:50;;;;;;;4.27;1.50;;;;;;;;;;5047456;28;20580;-59
2022/04/01 03:52:19;;;;;;;2.43;1.30;;;;;;;;;;5030583;28;20561;-59
2022/04/01 03:54:46;;;;;;;3.50;1.10;;;;;;;;;;5038390;28;20433;-59
2022/04/01 03:57:37;;;;;;;2.27;1.30;;;;;;;;;;5044713;28;20461;-62
2022/04/01 04:00:33;;;;;;;4.00;1.50;;;;;;;;;;5040323;28;21398;-61
2022/04/01 04:03:06;;;;;;;3.93;1.20;;;;;;;;;;5042242;28;20543;-59
2022/04/01 04:05:34;;;;;;;1.47;0.90;;;;;;;;;;5043549;28;20845;-61
2022/04/01 04:08:00;;;;;;;1.83;1.20;;;;;;;;;;5043571;28;20451;-59
2022/04/01 04:10:28;;;;;;;3.73;1.60;;;;;;;;;;5027104;28;20548;-59
2022/04/01 04:13:07;;;;;;;2.43;1.10;;;;;;;;;;5043438;28;20506;-60
2022/04/01 04:15:40;;;;;;;3.20;1.03;;;;;;;;;;5044421;28;20444;-60
2022/04/01 04:18:12;;;;;;;2.53;1.10;;;;;;;;;;5044169;28;20445;-60
2022/04/01 04:20:45;;;;;;;3.37;1.30;;;;;;;;;;5028144;28;20496;-59
2022/04/01 04:23:15;;;;;;;5.73;1.47;;;;;;;;;;5042909;28;20516;-60
2022/04/01 04:25:51;;;;;;;1.77;0.83;;;;;;;;;;5027645;28;20481;-60
2022/04/01 04:28:21;;;;;;;3.10;1.10;;;;;;;;;;5042405;28;20452;-59
2022/04/01 04:30:51;;;;;;;2.57;1.20;;;;;;;;;;5043752;28;20449;-60
2022/04/01 04:33:47;;;;;;;3.63;1.20;;;;;;;;;;5034448;28;20532;-62
2022/04/01 04:36:54;;;;;;;1.97;1.20;;;;;;;;;;5044925;28;20536;-59
2022/04/01 04:39:28;;;;;;;3.10;1.27;;;;;;;;;;5037867;28;20448;-58
2022/04/01 04:41:55;;;;;;;2.10;1.00;;;;;;;;;;5043141;28;20544;-61
2022/04/01 04:44:24;;;;;;;2.10;1.20;;;;;;;;;;5044277;28;20486;-59
2022/04/01 04:46:51;;;;;;;3.43;1.00;;;;;;;;;;5043657;28;20437;-59
2022/04/01 04:49:21;;;;;;;2.63;0.90;;;;;;;;;;5043965;28;20865;-60
2022/04/01 04:51:48;;;;;;;2.67;1.10;;;;;;;;;;5027175;28;20558;-58
2022/04/01 04:54:25;;;;;;;2.13;1.13;;;;;;;;;;5041024;28;20464;-59
2022/04/01 04:57:08;;;;;;;3.07;0.80;;;;;;;;;;5043615;28;20515;-59
2022/04/01 04:59:35;;;;;;;2.23;1.00;;;;;;;;;;5022207;28;20498;-60
2022/04/01 05:02:07;;;;;;;2.20;1.10;;;;;;;;;;5019824;28;21010;-60
2022/04/01 05:04:40;;;;;;;2.60;1.00;;;;;;;;;;5022600;28;21299;-61
2022/04/01 05:07:08;;;;;;;2.53;1.30;;;;;;;;;;5024024;28;20480;-60
2022/04/01 05:10:16;;;;;;;2.37;1.00;;;;;;;;;;5020649;28;20495;-60
2022/04/01 05:12:53;;;;;;;2.53;0.90;;;;;;;;;;5004913;28;20856;-60
2022/04/01 05:15:40;;;;;;;2.70;0.87;;;;;;;;;;5008250;28;20442;-60
2022/04/01 05:18:25;;;;;;;2.33;0.90;;;;;;;;;;4998580;28;20469;-59
2022/04/01 05:20:55;;;;;;;1.10;0.80;;;;;;;;;;5028646;28;20441;-60
2022/04/01 05:23:47;;;;;;;2.80;0.93;;;;;;;;;;5027017;28;20630;-59
2022/04/01 05:26:14;;;;;;;1.60;1.00;;;;;;;;;;5027794;28;20473;-60
2022/04/01 05:29:13;;;;;;;1.53;0.87;;;;;;;;;;5028170;28;20540;-59
2022/04/01 05:31:44;;;;;;;1.43;0.90;;;;;;;;;;5012617;28;20454;-60
2022/04/01 05:34:13;;;;;;;3.23;0.97;;;;;;;;;;4999688;28;20452;-60
2022/04/01 05:36:43;;;;;;;5.30;0.80;;;;;;;;;;5008864;28;20454;-60
2022/04/01 05:39:11;;;;;;;2.13;0.90;;;;;;;;;;5008452;28;20434;-57
2022/04/01 05:41:42;;;;;;;1.63;0.80;;;;;;;;;;5008109;28;20519;-61
2022/04/01 05:44:09;;;;;;;1.87;0.90;;;;;;;;;;5003832;28;20482;-61
2022/04/01 05:46:39;;;;;;;1.37;0.90;;;;;;;;;;5023874;28;20442;-57
2022/04/01 05:49:11;;;;;;;2.07;1.07;;;;;;;;;;5006890;28;20450;-59
2022/04/01 05:51:38;;;;;;;3.00;1.20;;;;;;;;;;5022811;28;21173;-60
2022/04/01 05:54:05;;;;;;;3.60;1.23;;;;;;;;;;5022682;28;20959;-60
2022/04/01 05:56:35;;;;;;;3.17;1.27;;;;;;;;;;5022415;28;20461;-59
2022/04/01 05:59:02;;;;;;;2.43;1.00;;;;;;;;;;5005275;28;20622;-59
2022/04/01 06:01:51;;;;;;;3.83;1.13;;;;;;;;;;5022627;28;21271;-60
2022/04/01 06:04:37;;;;;;;2.17;0.93;;;;;;;;;;5005179;28;21291;-58
2022/04/01 06:07:18;;;;;;;2.83;1.10;;;;;;;;;;5038434;28;20450;-59
2022/04/01 06:10:11;;;;;;;13.80;2.30;;;;;;;;;;5005759;28;20509;-60
2022/04/01 06:13:16;;;;;;;3.50;1.10;;;;;;;;;;5021203;28;20837;-59
2022/04/01 06:16:23;;;;;;;3.27;1.20;;;;;;;;;;5022482;28;20488;-61
2022/04/01 06:19:24;;;;;;;2.90;1.00;;;;;;;;;;5037703;28;20731;-59
2022/04/01 06:22:03;;;;;;;1.53;0.90;;;;;;;;;;5013169;28;20561;-59
2022/04/01 06:24:40;;;;;;;2.37;0.83;;;;;;;;;;5026806;28;20543;-61
2022/04/01 06:27:09;;;;;;;1.43;0.80;;;;;;;;;;5038412;28;20448;-59
2022/04/01 06:29:39;;;;;;;1.20;0.80;;;;;;;;;;5020995;28;20439;-59
2022/04/01 06:32:07;;;;;;;2.20;1.00;;;;;;;;;;5017784;28;20434;-59
2022/04/01 06:34:40;;;;;;;2.00;1.00;;;;;;;;;;5020952;28;20458;-60
2022/04/01 06:37:33;;;;;;;2.07;0.83;;;;;;;;;;5022228;28;20969;-59
2022/04/01 06:40:06;;;;;;;3.97;0.83;;;;;;;;;;5020931;28;20456;-59
2022/04/01 06:42:41;;;;;;;1.43;0.80;;;;;;;;;;5024308;28;20460;-60
2022/04/01 06:45:27;;;;;;;3.47;0.80;;;;;;;;;;5022289;28;20516;-60
2022/04/01 06:48:13;;;;;;;2.83;0.90;;;;;;;;;;5019863;28;20429;-58
2022/04/01 06:51:08;;;;;;;3.90;0.93;;;;;;;;;;5021210;28;20484;-58
2022/04/01 06:54:04;;;;;;;1.57;0.93;;;;;;;;;;5001021;28;20985;-60
2022/04/01 06:56:43;;;;;;;1.70;1.00;;;;;;;;;;5021646;28;20414;-59
2022/04/01 06:59:10;;;;;;;6.43;1.33;;;;;;;;;;5020806;28;21023;-59
2022/04/01 07:01:38;;;;;;;2.67;1.30;;;;;;;;;;5042658;28;20480;-59
2022/04/01 07:04:05;;;;;;;2.30;1.07;;;;;;;;;;5041125;28;20532;-61
2022/04/01 07:06:34;;;;;;;2.43;1.10;;;;;;;;;;5044011;28;21038;-60
2022/04/01 07:09:01;;;;;;;3.60;1.10;;;;;;;;;;5039298;28;20447;-58
2022/04/01 07:11:30;;;;;;;3.63;1.10;;;;;;;;;;5041443;28;20758;-59
2022/04/01 07:13:56;;;;;;;4.40;1.40;;;;;;;;;;5041507;28;20471;-60
2022/04/01 07:16:24;;;;;;;3.67;1.17;;;;;;;;;;5041445;28;20429;-60
2022/04/01 07:18:52;;;;;;;2.67;1.03;;;;;;;;;;5040693;28;20451;-59
2022/04/01 07:21:19;;;;;;;3.53;1.40;;;;;;;;;;5039710;28;21133;-60
2022/04/01 07:23:46;;;;;;;3.40;1.20;;;;;;;;;;5041351;28;20480;-60
2022/04/01 07:26:13;;;;;;;3.37;1.03;;;;;;;;;;5041579;28;20444;-59
2022/04/01 07:28:40;;;;;;;3.80;1.40;;;;;;;;;;5040878;28;20441;-60
2022/04/01 07:34:22;;;;;;;2.60;1.13;;;;;;;;;;5041155;28;20441;-60
2022/04/01 07:36:49;;;;;;;4.33;1.40;;;;;;;;;;5040318;28;20421;-60
2022/04/01 07:39:16;;;;;;;3.27;1.53;;;;;;;;;;5040985;28;20505;-60
2022/04/01 07:41:43;;;;;;;4.60;1.10;;;;;;;;;;5041788;28;20457;-61
2022/04/01 07:44:10;;;;;;;3.73;1.30;;;;;;;;;;5042218;28;20516;-62
2022/04/01 07:46:37;;;;;;;5.10;1.47;;;;;;;;;;5042178;28;20455;-63
2022/04/01 07:49:09;;;;;;;4.53;1.40;;;;;;;;;;5041480;28;21211;-64
2022/04/01 07:51:54;;;;;;;2.37;1.27;;;;;;;;;;5042100;28;20429;-64
2022/04/01 07:54:20;;;;;;;1.93;1.27;;;;;;;;;;5041257;28;21018;-61
2022/04/01 07:56:48;;;;;;;5.00;1.27;;;;;;;;;;5041805;28;20547;-69
2022/04/01 07:59:15;;;;;;;4.03;1.10;;;;;;;;;;5042326;28;20558;-61
2022/04/01 08:01:42;;;;;;;3.70;1.63;;;;;;;;;;5041477;28;20453;-60
2022/04/01 08:04:26;;;;;;;2.40;1.20;;;;;;;;;;5041524;28;20484;-61
2022/04/01 08:06:55;;;;;;;3.13;0.90;;;;;;;;;;5042836;28;20847;-62
2022/04/01 08:09:39;;;;;;;4.60;1.10;;;;;;;;;;5041556;28;20530;-62
2022/04/01 08:12:08;;;;;;;2.57;1.00;;;;;;;;;;5040561;28;20436;-57
2022/04/01 08:14:37;;;;;;;2.87;1.10;;;;;;;;;;5039654;28;20786;-59
2022/04/01 08:17:05;;;;;;;2.10;1.03;;;;;;;;;;5036866;28;20468;-60
2022/04/01 08:19:32;;;;;;;3.33;1.10;;;;;;;;;;5041466;28;20469;-60
2022/04/01 08:21:59;;;;;;;2.97;0.90;;;;;;;;;;5040908;28;20444;-60
2022/04/01 08:24:26;;;;;;;3.60;0.97;;;;;;;;;;5037298;28;20500;-61
2022/04/01 08:26:53;;;;;;;5.47;0.83;;;;;;;;;;5040526;28;20456;-62
2022/04/01 08:29:22;;;;;;;3.73;1.10;;;;;;;;;;5040681;28;20467;-59
2022/04/01 08:31:49;;;;;;;1.10;0.73;;;;;;;;;;5042128;28;20449;-60
2022/04/01 08:34:16;;;;;;;3.73;0.90;;;;;;;;;;5042227;28;20441;-59
2022/04/01 08:36:43;;;;;;;1.20;0.80;;;;;;;;;;5043816;28;20441;-59
2022/04/01 08:39:10;;;;;;;1.60;0.90;;;;;;;;;;5043871;28;20523;-61
2022/04/01 08:41:37;;;;;;;1.93;0.80;;;;;;;;;;5044008;28;20465;-62
2022/04/01 08:44:22;;;;;;;1.47;0.83;;;;;;;;;;5043355;28;20536;-61
2022/04/01 08:46:48;;;;;;;2.43;0.90;;;;;;;;;;5044494;28;20653;-61
2022/04/01 08:49:16;;;;;;;1.13;0.80;;;;;;;;;;5042890;28;20937;-61
2022/04/01 08:51:43;;;;;;;1.57;0.90;;;;;;;;;;5044462;28;20440;-64
2022/04/01 08:54:15;;;;;;;3.03;0.90;;;;;;;;;;5042277;28;20449;-66
2022/04/01 08:56:41;;;;;;;3.23;0.90;;;;;;;;;;5044271;28;20435;-61
2022/04/01 08:59:08;;;;;;;4.73;1.50;;;;;;;;;;5043822;28;20445;-62
2022/04/01 09:01:39;;;;;;;3.53;1.10;;;;;;;;;;5043863;28;20936;-62
2022/04/01 09:04:16;;;;;;;1.67;0.80;;;;;;;;;;5041747;28;20546;-61
2022/04/01 09:06:45;;;;;;;2.43;0.90;;;;;;;;;;5043824;28;20482;-61
2022/04/01 09:09:25;;;;;;;0.97;0.70;;;;;;;;;;5042391;28;21036;-61
2022/04/01 09:12:07;;;;;;;2.07;0.90;;;;;;;;;;5043847;28;20440;-64
2022/04/01 09:14:34;;;;;;;2.13;1.00;;;;;;;;;;5041924;28;20947;-63
2022/04/01 09:17:01;;;;;;;1.80;0.80;;;;;;;;;;5044008;28;20437;-63
2022/04/01 09:19:30;;;;;;;2.43;0.70;;;;;;;;;;5041807;28;20537;-62
2022/04/01 09:21:57;;;;;;;1.70;0.90;;;;;;;;;;5044651;28;20449;-63
2022/04/01 09:24:25;;;;;;;1.07;0.70;;;;;;;;;;5042437;28;20472;-64
2022/04/01 09:26:55;;;;;;;1.80;0.70;;;;;;;;;;5043693;28;20224;-65
2022/04/01 09:29:23;;;;;;;3.20;0.80;;;;;;;;;;5041698;28;20443;-60
2022/04/01 09:31:51;;;;;;;2.57;1.00;;;;;;;;;;5043633;28;20205;-63
2022/04/01 09:34:22;;;;;;;4.80;1.10;;;;;;;;;;5043541;28;20453;-66
2022/04/01 09:36:51;;;;;;;3.03;0.83;;;;;;;;;;5043719;28;20437;-64
2022/04/01 09:39:18;;;;;;;2.93;1.10;;;;;;;;;;5043364;28;20437;-63
2022/04/01 09:41:49;;;;;;;8.00;1.10;;;;;;;;;;5044237;28;20499;-63
2022/04/01 09:44:27;;;;;;;4.30;1.20;;;;;;;;;;5042929;28;20843;-64
2022/04/01 09:46:57;;;;;;;1.80;0.70;;;;;;;;;;5026489;28;20433;-65
2022/04/01 09:49:29;;;;;;;4.40;0.90;;;;;;;;;;5044997;28;20449;-62
2022/04/01 09:52:01;;;;;;;2.83;1.40;;;;;;;;;;5042352;28;20503;-61
2022/04/01 09:54:27;;;;;;;1.83;0.90;;;;;;;;;;5037513;28;20531;-66
2022/04/01 09:56:58;;;;;;;6.00;1.10;;;;;;;;;;5041732;28;20437;-64
2022/04/01 09:59:31;;;;;;;3.73;1.30;;;;;;;;;;5041714;28;20457;-62
2022/04/01 10:02:01;;;;;;;5.03;1.07;;;;;;;;;;5041202;28;20444;-63
2022/04/01 10:04:28;;;;;;;4.43;1.20;;;;;;;;;;5022437;28;20489;-62
2022/04/01 10:06:55;;;;;;;6.83;1.00;;;;;;;;;;5022497;28;20439;-63
2022/04/01 10:09:23;;;;;;;2.47;1.00;;;;;;;;;;5022994;28;20533;-62
2022/04/01 10:12:11;;;;;;;4.80;1.10;;;;;;;;;;5022336;28;20705;-62
2022/04/01 10:14:39;;;;;;;13.43;5.80;;;;;;;;;;5004415;28;20195;-63
2022/04/01 10:17:23;;;;;;;3.23;1.27;;;;;;;;;;5022894;28;20533;-63
2022/04/01 10:19:50;;;;;;;3.53;1.10;;;;;;;;;;5022373;28;20876;-64
2022/04/01 10:22:17;;;;;;;9.07;1.10;;;;;;;;;;5021986;28;20855;-62
2022/04/01 10:24:47;;;;;;;3.20;1.00;;;;;;;;;;5022137;28;20207;-63
2022/04/01 10:27:16;;;;;;;1.97;1.00;;;;;;;;;;5020631;28;20776;-61
2022/04/01 10:29:42;;;;;;;2.43;0.80;;;;;;;;;;5022420;28;20253;-61
2022/04/01 10:32:19;;;;;;;6.07;1.00;;;;;;;;;;5022401;28;20516;-64
2022/04/01 10:34:47;;;;;;;5.90;1.07;;;;;;;;;;5022576;28;20941;-61
2022/04/01 10:37:14;;;;;;;3.90;0.97;;;;;;;;;;5017537;28;20822;-62
2022/04/01 10:39:50;;;;;;;3.23;0.67;;;;;;;;;;5022723;28;20446;-66
2022/04/01 10:42:17;;;;;;;4.60;2.17;;;;;;;;;;5020737;28;20930;-67
2022/04/01 10:44:45;;;;;;;2.77;0.80;;;;;;;;;;5022055;28;21400;-66
2022/04/01 10:47:20;;;;;;;2.00;0.90;;;;;;;;;;5022463;28;20182;-69
2022/04/01 10:52:32;;;;;;;2.40;1.10;;;;;;;;;;5021958;28;20430;-67
2022/04/01 10:55:06;;;;;;;8.43;0.90;;;;;;;;;;5022111;28;20553;-67
2022/04/01 10:57:36;;;;;;;8.10;1.10;;;;;;;;;;5020498;28;20438;-67
2022/04/01 11:00:05;;;;;;;1.67;0.90;;;;;;;;;;5021353;28;21102;-67
2022/04/01 11:02:32;;;;;;;2.60;0.90;;;;;;;;;;5020508;28;20430;-63
2022/04/01 11:05:00;;;;;;;4.87;2.23;;;;;;;;;;5018805;28;20496;-65
2022/04/01 11:07:30;;;;;;;5.10;2.00;;;;;;;;;;5020858;28;20450;-63
2022/04/01 11:10:10;;;;;;;1.60;1.00;;;;;;;;;;5019560;28;20257;-64
2022/04/01 11:12:49;;;;;;;2.23;1.17;;;;;;;;;;5016771;28;20435;-62
2022/04/01 11:15:24;;;;;;;8.37;1.50;;;;;;;;;;5021688;28;20500;-61
2022/04/01 11:17:57;;;;;;;1.87;0.80;;;;;;;;;;5022012;28;20446;-62
2022/04/01 11:20:28;;;;;;;7.07;2.67;;;;;;;;;;5020447;28;21647;-60
2022/04/01 11:23:04;;;;;;;10.53;2.63;;;;;;;;;;5019134;28;20454;-60
2022/04/01 11:25:35;;;;;;;6.33;1.47;;;;;;;;;;5020594;28;20223;-59
2022/04/01 11:28:38;;;;;;;5.43;2.40;;;;;;;;;;5021797;28;20842;-59
2022/04/01 11:31:05;;;;;;;4.70;2.40;;;;;;;;;;5021097;28;20828;-60
2022/04/01 11:33:33;;;;;;;7.10;1.03;;;;;;;;;;5019991;28;20215;-60
2022/04/01 11:36:00;;;;;;;8.13;3.53;;;;;;;;;;5020508;28;20442;-60
2022/04/01 11:38:29;;;;;;;11.23;6.17;;;;;;;;;;5022079;28;20438;-62
2022/04/01 11:41:00;;;;;;;8.33;4.33;;;;;;;;;;5021616;28;20199;-61
2022/04/01 11:43:28;;;;;;;15.33;5.33;;;;;;;;;;5018613;28;20209;-60
2022/04/01 11:45:57;;;;;;;19.37;5.77;;;;;;;;;;5021959;28;20570;-61
2022/04/01 11:48:28;;;;;;;20.20;7.17;;;;;;;;;;5021472;28;20911;-61
2022/04/01 11:51:05;;;;;;;4.53;1.47;;;;;;;;;;5019317;28;22023;-61
2022/04/01 11:53:36;;;;;;;10.03;2.23;;;;;;;;;;5020435;28;20932;-61
2022/04/01 11:56:04;;;;;;;4.70;1.17;;;;;;;;;;5021170;28;20195;-61
2022/04/01 11:58:34;;;;;;;4.70;1.87;;;;;;;;;;5021331;28;20523;-63
2022/04/01 12:01:01;;;;;;;14.87;7.30;;;;;;;;;;5017124;28;20437;-62
2022/04/01 12:03:31;;;;;;;1.90;1.30;;;;;;;;;;5017093;28;20555;-62
2022/04/01 12:08:41;;;;;;;3.30;1.40;;;;;;;;;;5017226;28;20482;-61
2022/04/01 12:08:46;;;;;;;6.90;1.80;;;;;;;;;;5025225;28;20202;-63
2022/04/01 12:11:13;;;;;;;8.30;1.43;;;;;;;;;;5024914;28;20895;-63
2022/04/01 12:13:50;;;;;;;4.03;1.33;;;;;;;;;;5025140;28;20840;-62
2022/04/01 12:16:21;;;;;;;6.13;2.00;;;;;;;;;;5022903;28;20453;-63
2022/04/01 12:18:49;;;;;;;4.40;2.20;;;;;;;;;;5021628;28;20214;-62
2022/04/01 12:21:17;;;;;;;4.83;1.10;;;;;;;;;;5023363;28;20190;-64
2022/04/01 12:23:46;;;;;;;11.80;1.60;;;;;;;;;;5023517;28;20430;-62
2022/04/01 12:26:13;;;;;;;4.03;1.53;;;;;;;;;;5024165;28;20589;-62
2022/04/01 12:28:42;;;;;;;5.37;2.17;;;;;;;;;;5025423;28;20442;-61
2022/04/01 12:31:16;;;;;;;6.50;1.33;;;;;;;;;;5028935;28;20461;-61
2022/04/01 12:33:45;;;;;;;5.10;1.60;;;;;;;;;;5031077;28;20460;-61
2022/04/01 12:36:11;;;;;;;6.77;1.00;;;;;;;;;;5031521;28;20665;-61
2022/04/01 12:38:39;;;;;;;6.60;1.87;;;;;;;;;;5031424;28;20442;-61
2022/04/01 12:41:07;;;;;;;6.57;1.67;;;;;;;;;;5012174;28;20461;-61
2022/04/01 12:43:54;;;;;;;1.90;1.70;;;;;;;;;;5011901;28;20414;-61
2022/04/01 12:46:21;;;;;;;4.63;1.90;;;;;;;;;;5010281;28;20877;-63
2022/04/01 12:48:51;;;;;;;4.97;1.60;;;;;;;;;;4994054;28;20541;-62
2022/04/01 12:51:24;;;;;;;8.00;1.60;;;;;;;;;;5011543;28;20933;-63
2022/04/01 12:53:55;;;;;;;4.30;1.43;;;;;;;;;;5011495;28;20534;-63
2022/04/01 12:56:23;;;;;;;4.07;1.57;;;;;;;;;;5010956;28;20447;-62
2022/04/01 12:58:51;;;;;;;15.30;2.17;;;;;;;;;;5011786;28;20493;-62
2022/04/01 13:01:35;;;;;;;3.90;1.43;;;;;;;;;;5010972;28;20517;-63
2022/04/01 13:04:02;;;;;;;2.20;1.03;;;;;;;;;;5010461;28;20509;-62
2022/04/01 13:06:29;;;;;;;3.20;1.30;;;;;;;;;;5010992;28;20459;-63
2022/04/01 13:09:01;;;;;;;4.50;1.43;;;;;;;;;;5011337;28;20430;-63
2022/04/01 13:11:35;;;;;;;6.20;1.87;;;;;;;;;;5010522;28;20435;-63
2022/04/01 13:14:02;;;;;;;4.60;1.37;;;;;;;;;;5010203;28;21284;-63
2022/04/01 13:16:38;;;;;;;8.17;1.90;;;;;;;;;;5020532;28;20446;-63
2022/04/01 13:19:26;;;;;;;9.90;1.63;;;;;;;;;;5029274;28;20448;-63
2022/04/01 13:21:57;;;;;;;4.33;1.70;;;;;;;;;;5030729;28;20442;-63
2022/04/01 13:24:33;;;;;;;8.37;1.30;;;;;;;;;;5018882;28;21018;-63
2022/04/01 13:27:00;;;;;;;6.17;2.00;;;;;;;;;;5011129;28;20536;-63
2022/04/01 13:29:27;;;;;;;7.67;3.43;;;;;;;;;;5022487;28;20452;-66
2022/04/01 13:31:56;;;;;;;10.57;2.43;;;;;;;;;;5029102;28;20461;-65
2022/04/01 13:34:23;;;;;;;3.00;1.23;;;;;;;;;;5026127;28;20452;-66
2022/04/01 13:36:50;;;;;;;4.20;1.53;;;;;;;;;;5009723;28;20431;-64
2022/04/01 13:39:17;;;;;;;5.30;2.30;;;;;;;;;;5022210;28;21276;-66
2022/04/01 13:41:45;;;;;;;8.80;1.80;;;;;;;;;;5021921;28;20478;-61
2022/04/01 13:44:12;;;;;;;10.67;2.20;;;;;;;;;;5023644;28;20539;-62
2022/04/01 13:46:40;;;;;;;9.93;2.03;;;;;;;;;;5023741;28;20489;-63
2022/04/01 13:49:06;;;;;;;10.60;2.40;;;;;;;;;;5022771;28;21004;-63
2022/04/01 13:51:37;;;;;;;4.53;1.67;;;;;;;;;;5023684;28;20438;-63
2022/04/01 13:54:04;;;;;;;3.40;1.70;;;;;;;;;;5023491;28;20469;-62
2022/04/01 13:56:31;;;;;;;2.47;1.70;;;;;;;;;;5023255;28;20450;-63
2022/04/01 13:58:58;;;;;;;5.40;1.53;;;;;;;;;;5021464;28;20455;-62
2022/04/01 14:01:25;;;;;;;5.67;1.50;;;;;;;;;;5023268;28;20814;-62
2022/04/01 14:03:52;;;;;;;3.27;1.43;;;;;;;;;;5022413;28;20478;-62
2022/04/01 14:06:23;;;;;;;6.50;2.30;;;;;;;;;;5021686;28;21183;-61
2022/04/01 14:08:50;;;;;;;4.63;1.60;;;;;;;;;;5021401;28;20888;-62
2022/04/01 14:11:17;;;;;;;7.43;1.87;;;;;;;;;;5021764;28;20452;-62
2022/04/01 14:13:44;;;;;;;5.83;2.23;;;;;;;;;;5022820;28;20933;-62
2022/04/01 14:16:18;;;;;;;4.77;1.50;;;;;;;;;;5021361;28;20450;-62
2022/04/01 14:18:46;;;;;;;3.80;1.30;;;;;;;;;;5020132;28;20441;-63
2022/04/01 14:21:14;;;;;;;4.80;1.60;;;;;;;;;;5019175;28;20452;-62
2022/04/01 14:23:40;;;;;;;4.70;1.60;;;;;;;;;;5019275;28;20446;-63
2022/04/01 14:26:08;;;;;;;2.17;1.57;;;;;;;;;;5021753;28;20482;-63
2022/04/01 14:28:36;;;;;;;3.23;1.50;;;;;;;;;;5020334;28;20556;-62
2022/04/01 14:31:06;;;;;;;12.97;2.03;;;;;;;;;;5019666;28;20450;-60
2022/04/01 14:33:34;;;;;;;4.10;1.50;;;;;;;;;;5021485;28;20813;-60
2022/04/01 14:36:02;;;;;;;3.13;1.57;;;;;;;;;;5022101;28;20438;-60
2022/04/01 14:38:29;;;;;;;3.53;1.50;;;;;;;;;;5020059;28;20486;-60
2022/04/01 14:41:12;;;;;;;5.33;1.70;;;;;;;;;;5021703;28;20444;-61
2022/04/01 14:43:39;;;;;;;5.40;1.60;;;;;;;;;;5041188;28;20461;-63
2022/04/01 14:46:07;;;;;;;6.17;1.67;;;;;;;;;;5035101;28;20487;-61
2022/04/01 14:48:34;;;;;;;5.23;1.57;;;;;;;;;;5038697;28;20480;-60
2022/04/01 14:51:02;;;;;;;4.60;1.50;;;;;;;;;;5039685;28;20505;-61
2022/04/01 14:53:30;;;;;;;6.53;1.33;;;;;;;;;;5037045;28;20572;-60
2022/04/01 14:55:57;;;;;;;2.70;1.27;;;;;;;;;;5039770;28;20485;-60
2022/04/01 14:58:25;;;;;;;4.60;1.40;;;;;;;;;;5037811;28;20441;-59
2022/04/01 15:00:52;;;;;;;6.50;1.70;;;;;;;;;;5040747;28;20947;-61
2022/04/01 15:03:19;;;;;;;4.33;1.67;;;;;;;;;;5036447;28;20492;-60
2022/04/01 15:05:50;;;;;;;4.07;1.17;;;;;;;;;;5037058;28;20472;-59
2022/04/01 15:08:17;;;;;;;5.30;1.30;;;;;;;;;;5037956;28;20445;-60
2022/04/01 15:10:45;;;;;;;3.40;1.60;;;;;;;;;;5023402;28;20457;-62
2022/04/01 15:13:13;;;;;;;4.27;1.53;;;;;;;;;;5025851;28;20444;-58
2022/04/01 15:15:40;;;;;;;5.43;2.00;;;;;;;;;;5040418;28;20445;-59
2022/04/01 15:18:08;;;;;;;3.73;1.50;;;;;;;;;;5040158;28;20784;-60
2022/04/01 15:20:35;;;;;;;5.17;1.77;;;;;;;;;;5037838;28;20519;-60
2022/04/01 15:23:02;;;;;;;5.93;1.60;;;;;;;;;;5037474;28;20441;-59
2022/04/01 15:25:29;;;;;;;6.83;2.27;;;;;;;;;;5038563;28;20950;-60
2022/04/01 15:27:56;;;;;;;14.50;1.77;;;;;;;;;;5037390;28;20439;-60
2022/04/01 15:30:27;;;;;;;7.13;1.60;;;;;;;;;;5040249;28;20574;-61
2022/04/01 15:32:55;;;;;;;5.63;1.53;;;;;;;;;;5039100;28;21122;-61
2022/04/01 15:35:22;;;;;;;19.80;2.83;;;;;;;;;;5043031;28;21170;-60
2022/04/01 15:37:50;;;;;;;5.07;1.30;;;;;;;;;;5042146;28;20898;-60
2022/04/01 15:40:18;;;;;;;5.40;1.60;;;;;;;;;;5037591;28;20470;-60
2022/04/01 15:42:52;;;;;;;7.40;3.30;;;;;;;;;;5038412;28;20528;-60
2022/04/01 15:45:26;;;;;;;3.50;1.80;;;;;;;;;;5030886;28;20978;-60
2022/04/01 15:47:53;;;;;;;8.07;2.40;;;;;;;;;;5041117;28;20873;-61
2022/04/01 15:50:19;;;;;;;6.50;2.63;;;;;;;;;;5040112;28;20528;-59
2022/04/01 15:52:46;;;;;;;7.20;2.50;;;;;;;;;;5041225;28;20511;-60
2022/04/01 15:55:13;;;;;;;6.07;1.93;;;;;;;;;;5041183;28;20431;-60
2022/04/01 15:57:41;;;;;;;12.33;5.27;;;;;;;;;;5040088;28;20441;-61